Time;durP1;ratioP1;P1;durP2;ratioP2;P2;SDS_P1;SDS_P2;PMS_P1;PMS_P2;Temp;Humidity;BMP_temperature;BMP_pressure;BME280_temperature;BME280_humidity;BME280_pressure;Samples;Min_cycle;Max_cycle;Signal;HPM_P1;HPM_P2
2021/11/02 00:00:43;;;;;;;0.30;0.30;;;;;;;6.14;100.00;99477.97;5072619;28;20055;-83
2021/11/02 00:03:18;;;;;;;0.20;0.20;;;;;;;6.17;100.00;99474.72;5070893;28;20051;-83
2021/11/02 00:05:46;;;;;;;0.20;0.20;;;;;;;6.15;100.00;99476.09;5070126;28;20051;-83
2021/11/02 00:08:21;;;;;;;0.22;0.22;;;;;;;6.17;100.00;99472.00;5070247;28;20056;-83
2021/11/02 00:10:49;;;;;;;0.10;0.10;;;;;;;6.17;100.00;99468.50;5070979;28;20052;-83
2021/11/02 00:13:34;;;;;;;0.20;0.20;;;;;;;6.21;100.00;99462.25;5066973;28;20048;-84
2021/11/02 00:16:15;;;;;;;0.20;0.20;;;;;;;6.19;100.00;99458.25;5087844;28;20052;-83
2021/11/02 00:18:45;;;;;;;0.28;0.28;;;;;;;6.17;100.00;99465.81;5071982;28;20063;-83
2021/11/02 00:21:18;;;;;;;0.20;0.20;;;;;;;6.20;100.00;99474.19;5072443;28;20052;-83
2021/11/02 00:23:59;;;;;;;0.30;0.30;;;;;;;6.20;100.00;99465.25;5068736;28;20056;-83
2021/11/02 00:26:27;;;;;;;0.30;0.30;;;;;;;6.15;100.00;99458.00;5071661;28;20049;-83
2021/11/02 00:28:56;;;;;;;0.20;0.20;;;;;;;6.12;100.00;99467.47;5068579;28;20400;-84
2021/11/02 00:31:29;;;;;;;0.20;0.20;;;;;;;6.11;100.00;99470.44;5070033;28;20048;-84
2021/11/02 00:34:02;;;;;;;0.20;0.20;;;;;;;6.09;100.00;99470.72;5085564;28;20079;-83
2021/11/02 00:36:31;;;;;;;0.22;0.22;;;;;;;6.07;100.00;99463.97;5068641;28;20048;-84
2021/11/02 00:39:00;;;;;;;0.20;0.20;;;;;;;6.04;100.00;99468.03;5071486;28;20040;-83
2021/11/02 00:41:29;;;;;;;0.20;0.20;;;;;;;6.07;100.00;99475.59;5068426;28;20052;-85
2021/11/02 00:44:03;;;;;;;0.30;0.30;;;;;;;6.04;100.00;99457.25;5067308;28;20420;-84
2021/11/02 00:46:34;;;;;;;0.20;0.20;;;;;;;6.06;100.00;99457.78;5070348;28;20056;-83
2021/11/02 00:49:17;;;;;;;0.20;0.20;;;;;;;6.09;100.00;99467.19;5070297;28;20036;-84
2021/11/02 00:51:50;;;;;;;0.28;0.28;;;;;;;6.10;100.00;99458.84;5067543;28;20055;-84
2021/11/02 00:54:24;;;;;;;0.20;0.20;;;;;;;6.23;100.00;99459.31;5069707;28;20044;-83
2021/11/02 00:56:53;;;;;;;0.30;0.30;;;;;;;6.20;100.00;99459.84;5084028;28;20052;-84
2021/11/02 00:59:27;;;;;;;0.20;0.20;;;;;;;6.19;100.00;99467.16;5069216;28;20041;-84
2021/11/02 01:01:56;;;;;;;0.30;0.30;;;;;;;6.18;100.00;99453.94;5069482;28;20060;-84
2021/11/02 01:04:29;;;;;;;0.20;0.20;;;;;;;6.17;100.00;99463.09;5071037;28;20047;-84
2021/11/02 01:07:03;;;;;;;0.20;0.20;;;;;;;6.10;100.00;99453.44;5068498;28;20063;-84
2021/11/02 01:09:38;;;;;;;0.20;0.20;;;;;;;6.11;100.00;99460.44;5083657;28;20048;-83
2021/11/02 01:12:12;;;;;;;0.30;0.30;;;;;;;6.07;100.00;99461.28;5063317;28;20429;-83
2021/11/02 01:14:45;;;;;;;0.25;0.25;;;;;;;6.06;100.00;99460.50;5069735;28;20413;-84
2021/11/02 01:17:19;;;;;;;0.20;0.20;;;;;;;6.00;100.00;99458.09;5069179;28;20048;-83
2021/11/02 01:19:53;;;;;;;0.30;0.30;;;;;;;5.95;100.00;99451.59;5067587;28;20056;-84
2021/11/02 01:22:21;;;;;;;0.30;0.30;;;;;;;5.92;100.00;99446.78;5084295;28;20059;-83
2021/11/02 01:24:56;;;;;;;0.28;0.28;;;;;;;5.86;100.00;99447.88;5069341;28;20049;-83
2021/11/02 01:27:32;;;;;;;0.28;0.28;;;;;;;5.84;100.00;99444.66;5069852;28;20075;-84
2021/11/02 01:30:07;;;;;;;0.20;0.20;;;;;;;5.88;100.00;99444.88;5069688;28;20048;-83
2021/11/02 01:32:41;;;;;;;0.10;0.10;;;;;;;5.81;100.00;99449.78;5065514;28;20049;-83
2021/11/02 01:35:15;;;;;;;0.20;0.20;;;;;;;5.78;100.00;99443.06;5070330;28;20040;-84
2021/11/02 01:37:58;;;;;;;0.20;0.20;;;;;;;5.76;100.00;99435.22;5063475;28;20045;-84
2021/11/02 01:40:33;;;;;;;0.20;0.20;;;;;;;5.77;100.00;99428.75;5069604;28;20061;-84
2021/11/02 01:43:06;;;;;;;0.20;0.20;;;;;;;5.76;100.00;99435.22;5070531;28;20051;-84
2021/11/02 01:45:39;;;;;;;0.30;0.30;;;;;;;5.75;100.00;99439.00;5071669;28;20057;-84
2021/11/02 01:48:17;;;;;;;0.20;0.20;;;;;;;5.72;100.00;99439.56;5069694;28;20041;-84
2021/11/02 01:50:54;;;;;;;0.25;0.25;;;;;;;5.78;100.00;99438.44;5069261;28;20059;-84
2021/11/02 01:53:27;;;;;;;0.20;0.20;;;;;;;5.81;100.00;99429.00;5069553;28;20052;-84
2021/11/02 01:56:04;;;;;;;0.30;0.30;;;;;;;5.82;100.00;99432.50;5064093;28;20052;-84
2021/11/02 01:58:39;;;;;;;0.20;0.20;;;;;;;5.88;100.00;99429.50;5070265;28;20053;-83
2021/11/02 02:01:19;;;;;;;0.20;0.20;;;;;;;5.92;100.00;99438.66;5069042;28;20049;-83
2021/11/02 02:04:02;;;;;;;0.20;0.20;;;;;;;5.97;100.00;99435.13;5069883;28;20052;-84
2021/11/02 02:06:44;;;;;;;0.20;0.20;;;;;;;5.94;100.00;99432.97;5064491;28;20048;-83
2021/11/02 02:09:23;;;;;;;0.15;0.15;;;;;;;5.98;100.00;99425.97;5084961;28;20056;-84
2021/11/02 02:12:03;;;;;;;0.20;0.20;;;;;;;6.03;100.00;99425.13;5068532;28;20510;-84
2021/11/02 02:14:40;;;;;;;;;;;;;;;6.05;100.00;99428.34;5080707;28;20053;-83
2021/11/02 02:17:18;;;;;;;0.20;0.20;;;;;;;6.08;100.00;99425.88;5071001;28;20330;-83
2021/11/02 02:19:57;;;;;;;0.20;0.20;;;;;;;6.10;100.00;99423.72;5067067;28;20519;-83
2021/11/02 02:22:51;;;;;;;0.25;0.25;;;;;;;6.08;100.00;99420.50;5067261;28;20044;-83
2021/11/02 02:25:35;;;;;;;0.30;0.30;;;;;;;6.11;100.00;99421.81;5068928;28;20083;-84
2021/11/02 02:28:21;;;;;;;0.20;0.20;;;;;;;5.98;100.00;99415.16;5068604;28;20040;-83
2021/11/02 02:30:55;;;;;;;0.20;0.20;;;;;;;6.04;100.00;99427.53;5087082;28;20405;-83
2021/11/02 02:33:34;;;;;;;0.25;0.25;;;;;;;6.00;100.00;99423.78;5066700;28;20075;-82
2021/11/02 02:36:10;;;;;;;0.20;0.20;;;;;;;6.02;100.00;99410.81;5071104;28;20049;-83
2021/11/02 02:39:01;;;;;;;0.20;0.20;;;;;;;6.04;100.00;99418.63;5068342;28;20052;-84
2021/11/02 02:41:42;;;;;;;0.30;0.30;;;;;;;5.96;100.00;99406.50;5070668;28;20508;-83
2021/11/02 02:44:20;;;;;;;0.20;0.20;;;;;;;6.02;100.00;99416.22;5069719;28;20045;-83
2021/11/02 02:46:54;;;;;;;0.30;0.30;;;;;;;5.94;100.00;99414.88;5065051;28;20048;-83
2021/11/02 02:49:24;;;;;;;0.20;0.20;;;;;;;5.87;100.00;99419.78;5071042;28;20052;-83
2021/11/02 02:51:58;;;;;;;0.20;0.20;;;;;;;5.76;100.00;99412.84;5085173;28;20043;-82
2021/11/02 02:54:32;;;;;;;0.20;0.20;;;;;;;5.76;100.00;99429.84;5071841;28;20682;-84
2021/11/02 02:57:03;;;;;;;0.20;0.20;;;;;;;5.67;100.00;99426.09;5067772;28;20071;-83
2021/11/02 02:59:39;;;;;;;0.20;0.20;;;;;;;5.60;100.00;99428.31;5071879;28;20052;-83
2021/11/02 03:02:14;;;;;;;0.30;0.30;;;;;;;5.57;100.00;99426.97;5088353;28;20501;-83
2021/11/02 03:04:47;;;;;;;0.22;0.22;;;;;;;5.49;100.00;99430.22;5072728;28;20052;-84
2021/11/02 03:07:23;;;;;;;0.47;0.30;;;;;;;5.40;100.00;99431.88;5083601;28;20087;-84
2021/11/02 03:09:59;;;;;;;0.20;0.20;;;;;;;5.37;100.00;99430.56;5070224;28;20044;-83
2021/11/02 03:12:31;;;;;;;0.20;0.20;;;;;;;5.34;100.00;99428.41;5069320;28;20044;-83
2021/11/02 03:15:27;;;;;;;0.30;0.30;;;;;;;5.28;100.00;99422.22;5068753;28;20060;-83
2021/11/02 03:18:08;;;;;;;0.20;0.20;;;;;;;5.23;100.00;99422.25;5072322;28;20041;-84
2021/11/02 03:49:43;;;;;;;0.10;0.10;;;;;;;5.10;100.00;99429.03;5058591;28;20056;-84
2021/11/02 03:55:09;;;;;;;0.20;0.20;;;;;;;5.05;100.00;99436.31;5070456;28;20051;-84
2021/11/02 03:57:51;;;;;;;0.20;0.20;;;;;;;5.05;100.00;99439.00;5070873;28;20662;-84
2021/11/02 04:00:41;;;;;;;0.20;0.20;;;;;;;5.01;100.00;99432.56;5086982;28;20052;-82
2021/11/02 04:23:55;;;;;;;0.20;0.20;;;;;;;5.00;100.00;99433.63;5063480;28;20052;-83
2021/11/02 04:47:00;;;;;;;0.22;0.22;;;;;;;4.93;100.00;99421.25;5068858;28;20056;-83
2021/11/02 05:06:43;;;;;;;0.20;0.20;;;;;;;4.78;100.00;99415.91;5069307;28;20048;-82
2021/11/02 05:10:38;;;;;;;0.20;0.20;;;;;;;4.75;100.00;99414.56;5065083;28;20952;-84
2021/11/02 05:13:46;;;;;;;0.20;0.20;;;;;;;4.73;100.00;99421.28;5067654;28;20063;-83
2021/11/02 05:48:08;;;;;;;0.20;0.20;;;;;;;4.52;100.00;99399.75;5064604;28;20044;-83
2021/11/02 05:51:03;;;;;;;0.22;0.22;;;;;;;4.49;100.00;99400.31;5074045;28;20049;-83
2021/11/02 05:53:58;;;;;;;0.20;0.20;;;;;;;4.46;100.00;99395.47;5060107;28;20048;-84
2021/11/02 05:56:37;;;;;;;0.20;0.20;;;;;;;4.52;100.00;99404.34;5066293;28;20115;-83
2021/11/02 05:59:18;;;;;;;0.20;0.20;;;;;;;4.46;100.00;99406.25;5064848;28;20052;-83
2021/11/02 06:01:57;;;;;;;0.10;0.10;;;;;;;4.50;100.00;99411.88;5067011;28;20500;-84
2021/11/02 06:07:40;;;;;;;0.20;0.20;;;;;;;4.46;100.00;99418.88;5083945;28;20044;-83
2021/11/02 06:10:35;;;;;;;0.20;0.20;;;;;;;4.40;100.00;99413.50;5070334;28;20037;-84
2021/11/02 06:27:55;;;;;;;0.30;0.30;;;;;;;4.26;100.00;99413.22;5083485;28;20071;-83
2021/11/02 06:30:36;;;;;;;0.20;0.20;;;;;;;4.31;100.00;99415.13;5074015;28;20048;-85
2021/11/02 06:33:19;;;;;;;0.20;0.20;;;;;;;4.29;100.00;99411.09;5072565;28;20492;-83
2021/11/02 06:36:03;;;;;;;0.20;0.20;;;;;;;4.34;100.00;99421.88;5071539;28;20052;-83
2021/11/02 06:56:38;;;;;;;0.20;0.20;;;;;;;4.55;100.00;99445.00;5131202;27;20396;-82
2021/11/02 07:19:37;;;;;;;0.20;0.20;;;;;;;4.82;100.00;99472.75;5051603;28;20416;-82
2021/11/02 07:22:26;;;;;;;0.20;0.20;;;;;;;4.90;100.00;99469.50;5064749;28;20527;-84
2021/11/02 07:25:08;;;;;;;0.20;0.20;;;;;;;4.95;100.00;99469.50;5042736;28;20394;-84
2021/11/02 08:45:29;;;;;;;0.20;0.20;;;;;;;6.96;100.00;99447.59;5023655;28;20040;-81
2021/11/02 08:48:04;;;;;;;0.20;0.20;;;;;;;7.06;100.00;99448.59;5019736;28;20067;-85
2021/11/02 08:50:38;;;;;;;0.25;0.25;;;;;;;7.12;100.00;99444.72;5024271;28;20053;-81
2021/11/02 08:53:14;;;;;;;0.20;0.20;;;;;;;7.02;100.00;99442.94;5020481;28;20567;-84
2021/11/02 08:55:43;;;;;;;0.30;0.30;;;;;;;6.94;100.00;99433.53;5020981;28;20049;-84
2021/11/02 08:58:18;;;;;;;0.20;0.20;;;;;;;7.08;100.00;99438.28;4998699;28;20124;-83
2021/11/02 09:00:47;;;;;;;0.30;0.30;;;;;;;6.98;100.00;99444.59;5023592;28;20045;-83
2021/11/02 09:03:19;;;;;;;0.20;0.20;;;;;;;7.01;100.00;99437.81;5025641;28;20057;-88
2021/11/02 09:05:51;;;;;;;0.20;0.20;;;;;;;7.06;100.00;99440.47;5024585;28;20064;-83
2021/11/02 09:08:25;;;;;;;0.13;0.13;;;;;;;7.08;100.00;99438.28;5028137;28;20049;-84
2021/11/02 09:10:54;;;;;;;0.20;0.20;;;;;;;7.07;100.00;99450.19;5025394;28;20038;-84
2021/11/02 09:13:28;;;;;;;0.30;0.30;;;;;;;7.17;100.00;99441.16;5020723;28;20044;-83
2021/11/02 09:16:03;;;;;;;0.20;0.20;;;;;;;7.30;100.00;99448.59;5023335;28;21088;-82
2021/11/02 09:18:37;;;;;;;0.30;0.30;;;;;;;7.29;100.00;99449.66;5014572;28;20072;-83
2021/11/02 09:21:10;;;;;;;0.20;0.20;;;;;;;7.31;100.00;99452.91;5017212;28;20049;-83
2021/11/02 09:23:46;;;;;;;0.30;0.30;;;;;;;7.28;100.00;99445.38;5021284;28;20053;-82
2021/11/02 09:26:17;;;;;;;0.25;0.25;;;;;;;7.36;100.00;99449.31;5031741;28;20052;-82
2021/11/02 09:28:51;;;;;;;0.20;0.20;;;;;;;7.45;100.00;99451.09;5047298;28;20045;-83
2021/11/02 09:31:26;;;;;;;0.30;0.30;;;;;;;7.54;100.00;99448.59;5032602;28;20412;-82
2021/11/02 09:33:54;;;;;;;0.20;0.20;;;;;;;7.54;100.00;99447.75;5018521;28;20057;-82
2021/11/02 09:36:40;;;;;;;0.20;0.20;;;;;;;7.65;100.00;99454.66;5017469;28;20797;-83
2021/11/02 09:39:15;;;;;;;0.28;0.28;;;;;;;7.66;100.00;99450.84;5023825;28;20061;-84
2021/11/02 09:42:28;;;;;;;0.20;0.20;;;;;;;7.74;100.00;99452.13;5023419;28;20549;-83
2021/11/02 09:45:25;;;;;;;0.22;0.22;;;;;;;7.74;100.00;99460.25;4967353;28;20064;-83
2021/11/02 09:48:23;;;;;;;0.20;0.20;;;;;;;7.72;100.00;99441.59;5022887;28;20417;-83
2021/11/02 09:51:28;;;;;;;0.30;0.30;;;;;;;7.78;100.00;99445.81;5024642;28;20064;-84
2021/11/02 09:54:28;;;;;;;0.30;0.30;;;;;;;7.79;100.00;99439.31;5019408;28;20060;-83
2021/11/02 09:57:29;;;;;;;0.20;0.20;;;;;;;7.82;100.00;99438.72;5023219;28;20037;-82
2021/11/02 10:00:16;;;;;;;0.20;0.20;;;;;;;7.92;100.00;99440.47;5056534;28;20049;-83
2021/11/02 10:03:07;;;;;;;0.20;0.20;;;;;;;7.89;100.00;99432.16;5006166;28;20061;-83
2021/11/02 10:05:59;;;;;;;0.20;0.20;;;;;;;7.88;100.00;99428.63;5042072;28;20397;-83
2021/11/02 10:08:44;;;;;;;0.20;0.20;;;;;;;7.93;100.00;99433.97;5035085;28;20818;-82
2021/11/02 10:11:25;;;;;;;0.30;0.30;;;;;;;7.98;100.00;99428.50;5017547;28;20405;-82
2021/11/02 10:14:19;;;;;;;0.20;0.20;;;;;;;8.02;100.00;99422.47;5018135;28;20053;-82
2021/11/02 10:17:08;;;;;;;0.30;0.30;;;;;;;8.12;100.00;99425.03;5024002;28;20053;-83
2021/11/02 10:20:04;;;;;;;0.20;0.20;;;;;;;8.13;100.00;99423.94;5015840;28;20061;-85
2021/11/02 10:23:09;;;;;;;0.40;0.40;;;;;;;8.25;100.00;99421.56;5024896;28;20049;-82
2021/11/02 10:26:10;;;;;;;0.20;0.20;;;;;;;8.22;100.00;99424.09;5029678;28;20061;-82
2021/11/02 10:29:25;;;;;;;0.25;0.25;;;;;;;8.37;100.00;99418.41;5024167;28;20057;-83
2021/11/02 10:32:06;;;;;;;0.30;0.30;;;;;;;8.35;100.00;99423.31;4998797;28;20420;-81
2021/11/02 10:34:48;;;;;;;0.20;0.20;;;;;;;8.21;100.00;99417.06;5016191;28;20060;-81
2021/11/02 10:37:25;;;;;;;0.20;0.20;;;;;;;8.22;100.00;99418.66;5022578;28;20399;-82
2021/11/02 10:40:08;;;;;;;0.30;0.30;;;;;;;8.30;100.00;99412.53;5015443;28;20537;-81
2021/11/02 10:42:55;;;;;;;0.25;0.25;;;;;;;8.34;100.00;99408.97;5016884;28;20062;-82
2021/11/02 10:45:30;;;;;;;;;;;;;;;8.48;100.00;99416.38;5019210;28;20076;-82
2021/11/02 10:48:06;;;;;;;0.20;0.20;;;;;;;8.42;100.00;99410.19;5040614;28;19959;-81
2021/11/02 10:50:46;;;;;;;0.30;0.30;;;;;;;8.55;100.00;99410.53;5028498;28;20497;-82
2021/11/02 10:53:30;;;;;;;0.22;0.22;;;;;;;8.50;100.00;99414.16;5017482;28;20072;-81
2021/11/02 10:56:21;;;;;;;0.20;0.20;;;;;;;8.51;100.00;99413.06;5017421;28;21331;-82
2021/11/02 10:58:57;;;;;;;0.28;0.28;;;;;;;8.72;100.00;99404.59;5014889;28;20057;-82
2021/11/02 11:01:27;;;;;;;0.20;0.20;;;;;;;8.62;100.00;99406.38;5020600;28;20053;-81
2021/11/02 11:04:05;;;;;;;0.22;0.22;;;;;;;8.57;100.00;99406.44;5016608;28;21318;-82
2021/11/02 11:06:35;;;;;;;0.20;0.20;;;;;;;8.66;100.00;99401.94;5012866;28;20082;-81
2021/11/02 11:09:11;;;;;;;0.20;0.20;;;;;;;8.69;100.00;99400.56;5023738;28;20046;-83
2021/11/02 11:11:47;;;;;;;0.20;0.20;;;;;;;8.76;100.00;99402.88;5033493;28;20056;-82
2021/11/02 11:14:29;;;;;;;0.30;0.30;;;;;;;8.79;100.00;99397.66;5038256;28;20603;-82
2021/11/02 11:17:05;;;;;;;0.20;0.20;;;;;;;8.92;100.00;99393.34;5025597;28;20045;-81
2021/11/02 11:19:44;;;;;;;0.30;0.30;;;;;;;8.97;100.00;99387.81;5026137;28;21083;-81
2021/11/02 11:22:18;;;;;;;0.20;0.20;;;;;;;8.94;100.00;99393.06;5023793;28;20060;-81
2021/11/02 11:24:57;;;;;;;0.30;0.30;;;;;;;8.97;100.00;99395.16;5024826;28;20053;-81
2021/11/02 11:27:34;;;;;;;0.30;0.30;;;;;;;8.86;100.00;99383.69;5017310;28;20721;-79
2021/11/02 11:30:08;;;;;;;;;;;;;;;8.99;100.00;99399.19;5013292;28;20068;-82
2021/11/02 11:32:38;;;;;;;0.20;0.20;;;;;;;9.04;100.00;99397.47;5052805;28;20407;-80
2021/11/02 11:35:13;;;;;;;0.20;0.20;;;;;;;9.18;100.00;99393.66;5051326;28;20060;-80
2021/11/02 11:37:49;;;;;;;0.20;0.20;;;;;;;8.98;100.00;99386.72;5024109;28;20037;-80
2021/11/02 11:40:25;;;;;;;0.28;0.28;;;;;;;9.00;100.00;99373.66;5020735;28;20071;-82
2021/11/02 11:43:03;;;;;;;0.25;0.25;;;;;;;9.07;100.00;99380.59;5018780;28;20053;-81
2021/11/02 11:45:38;;;;;;;0.25;0.25;;;;;;;9.02;100.00;99373.38;5016864;28;21443;-80
2021/11/02 11:48:15;;;;;;;0.20;0.20;;;;;;;9.03;100.00;99385.81;5025493;28;20699;-81
2021/11/02 11:50:50;;;;;;;0.20;0.20;;;;;;;9.20;100.00;99382.50;5024383;28;20064;-79
2021/11/02 11:53:24;;;;;;;0.20;0.20;;;;;;;9.24;100.00;99385.41;5031956;28;20063;-83
2021/11/02 11:56:06;;;;;;;0.20;0.20;;;;;;;9.14;100.00;99383.69;5026916;28;20045;-80
2021/11/02 11:58:47;;;;;;;0.30;0.30;;;;;;;9.21;100.00;99384.13;5025571;28;20045;-80
2021/11/02 12:01:28;;;;;;;0.20;0.20;;;;;;;9.21;100.00;99386.00;5020595;28;20084;-81
2021/11/02 12:03:58;;;;;;;0.20;0.20;;;;;;;9.26;100.00;99388.63;5020401;28;21533;-81
2021/11/02 12:06:30;;;;;;;0.20;0.20;;;;;;;9.18;100.00;99381.97;5040485;28;20053;-81
2021/11/02 12:09:00;;;;;;;0.22;0.22;;;;;;;9.13;100.00;99384.81;5064450;28;20111;-81
2021/11/02 12:11:34;;;;;;;0.30;0.30;;;;;;;9.14;100.00;99376.38;5041837;28;20055;-80
2021/11/02 12:14:09;;;;;;;0.30;0.30;;;;;;;9.15;100.00;99379.88;5050154;28;20044;-80
2021/11/02 12:16:44;;;;;;;0.20;0.20;;;;;;;8.97;100.00;99376.97;5038403;28;20373;-80
2021/11/02 12:19:18;;;;;;;0.30;0.30;;;;;;;8.96;100.00;99374.56;5041285;28;20056;-80
2021/11/02 12:22:07;;;;;;;0.20;0.20;;;;;;;8.88;100.00;99373.34;5040252;28;20048;-80
2021/11/02 12:24:42;;;;;;;0.30;0.30;;;;;;;8.98;100.00;99364.22;5035720;28;20442;-80
2021/11/02 12:27:18;;;;;;;0.30;0.30;;;;;;;9.21;100.00;99373.25;5039263;28;20295;-80
2021/11/02 12:29:52;;;;;;;0.20;0.20;;;;;;;9.10;100.00;99367.22;5045326;28;20040;-80
2021/11/02 12:32:29;;;;;;;0.20;0.20;;;;;;;9.09;100.00;99360.19;5042214;28;20070;-80
2021/11/02 12:35:14;;;;;;;0.20;0.20;;;;;;;8.99;100.00;99363.91;5045461;28;20057;-80
2021/11/02 12:37:55;;;;;;;0.20;0.20;;;;;;;9.10;100.00;99356.38;5048099;28;20072;-81
2021/11/02 12:40:26;;;;;;;0.20;0.20;;;;;;;9.18;100.00;99363.00;5045303;28;21060;-80
2021/11/02 12:42:59;;;;;;;0.20;0.20;;;;;;;9.39;100.00;99362.56;5042719;28;20051;-80
2021/11/02 12:45:40;;;;;;;0.20;0.20;;;;;;;9.40;100.00;99364.97;5042379;28;20406;-81
2021/11/02 12:48:15;;;;;;;0.20;0.20;;;;;;;9.32;100.00;99368.41;5035148;28;20527;-80
2021/11/02 12:50:52;;;;;;;0.20;0.20;;;;;;;9.33;100.00;99365.38;5041913;28;20249;-80
2021/11/02 12:53:35;;;;;;;0.30;0.30;;;;;;;9.33;100.00;99368.09;5041427;28;20049;-80
2021/11/02 12:56:16;;;;;;;0.22;0.22;;;;;;;9.26;100.00;99362.28;5045286;28;20091;-80
2021/11/02 12:58:52;;;;;;;0.40;0.30;;;;;;;9.43;100.00;99369.81;5044371;28;20044;-80
2021/11/02 13:01:37;;;;;;;0.23;0.23;;;;;;;9.33;100.00;99376.25;5041699;28;20065;-80
2021/11/02 13:04:12;;;;;;;0.30;0.30;;;;;;;9.38;100.00;99377.25;5032965;28;20789;-80
2021/11/02 13:06:47;;;;;;;0.30;0.30;;;;;;;9.30;100.00;99373.34;5027207;28;20504;-80
2021/11/02 13:09:24;;;;;;;0.20;0.20;;;;;;;9.34;100.00;99368.91;5030103;28;20444;-80
2021/11/02 13:12:04;;;;;;;0.30;0.30;;;;;;;9.29;100.00;99379.88;5030207;28;20050;-80
2021/11/02 13:14:39;;;;;;;0.20;0.20;;;;;;;9.25;100.00;99371.53;5035366;28;20701;-80
2021/11/02 13:17:19;;;;;;;0.30;0.30;;;;;;;9.22;100.00;99380.28;5031244;28;20496;-80
2021/11/02 13:19:49;;;;;;;0.28;0.28;;;;;;;9.22;100.00;99374.06;5032974;28;20434;-79
2021/11/02 13:22:24;;;;;;;0.20;0.20;;;;;;;9.16;100.00;99379.56;5028227;28;20064;-80
2021/11/02 13:25:01;;;;;;;0.20;0.20;;;;;;;9.19;100.00;99370.03;5031205;28;20053;-80
2021/11/02 13:27:37;;;;;;;0.30;0.30;;;;;;;9.16;100.00;99376.88;5029178;28;20060;-79
2021/11/02 13:30:27;;;;;;;0.30;0.30;;;;;;;9.18;100.00;99374.66;5026652;28;21058;-81
2021/11/02 13:33:09;;;;;;;0.20;0.20;;;;;;;9.26;100.00;99372.34;5027325;28;20057;-80
2021/11/02 13:35:53;;;;;;;0.22;0.22;;;;;;;9.38;100.00;99380.78;5028173;28;20481;-80
2021/11/02 13:38:30;;;;;;;0.20;0.20;;;;;;;9.37;100.00;99384.59;5032224;28;20044;-80
2021/11/02 13:41:18;;;;;;;0.20;0.20;;;;;;;9.43;100.00;99386.09;5025868;28;20505;-82
2021/11/02 13:43:55;;;;;;;0.30;0.30;;;;;;;9.45;100.00;99380.38;5028087;28;20060;-81
2021/11/02 13:46:31;;;;;;;0.25;0.25;;;;;;;9.43;100.00;99391.53;5026585;28;20052;-80
2021/11/02 13:49:05;;;;;;;0.30;0.30;;;;;;;9.36;100.00;99380.25;5031947;28;20052;-81
2021/11/02 13:51:34;;;;;;;0.28;0.28;;;;;;;9.26;100.00;99389.41;5026956;28;20049;-80
2021/11/02 13:54:09;;;;;;;0.30;0.30;;;;;;;9.17;100.00;99386.63;5032035;28;20053;-80
2021/11/02 13:56:46;;;;;;;0.20;0.20;;;;;;;9.13;100.00;99382.91;5023889;28;20580;-80
2021/11/02 13:59:15;;;;;;;0.30;0.30;;;;;;;9.10;100.00;99386.22;5026790;28;20405;-80
2021/11/02 14:01:51;;;;;;;0.30;0.30;;;;;;;9.09;100.00;99386.53;5024523;28;20072;-80
2021/11/02 14:04:22;;;;;;;0.20;0.20;;;;;;;9.11;100.00;99387.03;5015927;28;20052;-80
2021/11/02 14:07:00;;;;;;;0.20;0.20;;;;;;;9.22;100.00;99390.34;5032372;28;20054;-79
2021/11/02 14:09:37;;;;;;;0.30;0.30;;;;;;;9.22;100.00;99388.41;5028843;28;20048;-80
2021/11/02 14:12:22;;;;;;;0.30;0.30;;;;;;;9.26;100.00;99389.41;5032776;28;20678;-81
2021/11/02 14:15:21;;;;;;;0.20;0.20;;;;;;;9.25;100.00;99381.59;5026012;28;21367;-79
2021/11/02 14:18:19;;;;;;;0.20;0.20;;;;;;;9.33;100.00;99376.25;5025203;28;20064;-79
2021/11/02 14:20:54;;;;;;;0.25;0.25;;;;;;;9.31;100.00;99381.19;5024154;28;20053;-79
2021/11/02 14:23:37;;;;;;;0.30;0.30;;;;;;;9.29;100.00;99388.81;5025421;28;20433;-80
2021/11/02 14:26:21;;;;;;;0.30;0.30;;;;;;;9.26;100.00;99394.06;5031329;28;20052;-79
2021/11/02 14:28:57;;;;;;;0.20;0.20;;;;;;;9.25;100.00;99387.81;5031770;28;20485;-81
2021/11/02 14:31:52;;;;;;;0.28;0.28;;;;;;;9.19;100.00;99380.88;5031195;28;20060;-81
2021/11/02 14:34:46;;;;;;;0.28;0.28;;;;;;;9.19;100.00;99383.59;5028474;28;20505;-81
2021/11/02 14:37:17;;;;;;;0.20;0.20;;;;;;;9.12;100.00;99384.00;5031196;28;20045;-81
2021/11/02 14:39:57;;;;;;;0.30;0.30;;;;;;;9.10;100.00;99382.69;5028568;28;20651;-81
2021/11/02 14:42:42;;;;;;;0.20;0.20;;;;;;;9.11;100.00;99381.59;5031764;28;20058;-81
2021/11/02 14:45:13;;;;;;;0.20;0.20;;;;;;;9.10;100.00;99380.81;5030643;28;20057;-80
2021/11/02 14:47:47;;;;;;;0.20;0.20;;;;;;;9.08;100.00;99388.41;5030440;28;20061;-80
2021/11/02 14:50:37;;;;;;;0.20;0.20;;;;;;;9.04;100.00;99381.19;5027694;28;20049;-80
2021/11/02 14:53:11;;;;;;;0.20;0.20;;;;;;;9.05;100.00;99393.66;5033100;28;20308;-81
2021/11/02 14:55:51;;;;;;;0.20;0.20;;;;;;;8.99;100.00;99385.63;5026583;28;20504;-81
2021/11/02 14:58:46;;;;;;;0.10;0.10;;;;;;;8.98;100.00;99389.44;5029113;28;20489;-80
2021/11/02 15:01:25;;;;;;;0.25;0.25;;;;;;;8.97;100.00;99387.03;5029818;28;20067;-80
2021/11/02 15:03:55;;;;;;;0.30;0.30;;;;;;;8.94;100.00;99387.63;5031409;28;21199;-80
2021/11/02 15:06:33;;;;;;;0.20;0.20;;;;;;;8.92;100.00;99392.53;5004911;28;20053;-81
2021/11/02 15:09:08;;;;;;;0.25;0.25;;;;;;;8.89;100.00;99390.44;5029066;28;20429;-80
2021/11/02 15:11:38;;;;;;;0.30;0.30;;;;;;;8.87;100.00;99387.22;5026176;28;20056;-81
2021/11/02 15:14:14;;;;;;;0.20;0.20;;;;;;;8.84;100.00;99383.19;5038210;28;20059;-81
2021/11/02 15:16:51;;;;;;;0.20;0.20;;;;;;;8.84;100.00;99386.72;5033251;28;20059;-80
2021/11/02 15:19:26;;;;;;;0.20;0.20;;;;;;;8.81;100.00;99390.03;5032672;28;20057;-79
2021/11/02 15:22:01;;;;;;;0.30;0.30;;;;;;;8.77;100.00;99394.44;5028342;28;20071;-83
2021/11/02 15:24:36;;;;;;;0.20;0.20;;;;;;;8.78;100.00;99387.91;5031874;28;20048;-80
2021/11/02 15:27:13;;;;;;;0.25;0.25;;;;;;;8.75;100.00;99393.91;5031095;28;20586;-81
2021/11/02 15:29:44;;;;;;;0.20;0.20;;;;;;;8.75;100.00;99383.06;5032355;28;20053;-81
2021/11/02 15:32:21;;;;;;;0.20;0.20;;;;;;;8.74;100.00;99394.22;5032319;28;21303;-80
2021/11/02 15:34:51;;;;;;;0.20;0.20;;;;;;;8.64;100.00;99381.66;5031097;28;21261;-80
2021/11/02 15:37:26;;;;;;;0.30;0.30;;;;;;;8.67;100.00;99395.44;5038687;28;20053;-81
2021/11/02 15:40:03;;;;;;;0.30;0.30;;;;;;;8.63;100.00;99399.84;5030004;28;20053;-81
2021/11/02 15:42:38;;;;;;;0.20;0.20;;;;;;;8.63;100.00;99399.84;5036979;28;20052;-81
2021/11/02 15:45:19;;;;;;;0.30;0.30;;;;;;;8.62;100.00;99402.84;5028124;28;20814;-80
2021/11/02 15:47:54;;;;;;;0.20;0.20;;;;;;;8.59;100.00;99398.81;5029476;28;20052;-81
2021/11/02 15:50:28;;;;;;;0.20;0.20;;;;;;;8.51;100.00;99404.94;5029938;28;20053;-81
2021/11/02 15:53:03;;;;;;;0.20;0.20;;;;;;;8.50;100.00;99406.81;5033846;28;20048;-81
2021/11/02 15:55:37;;;;;;;0.20;0.20;;;;;;;8.50;100.00;99395.19;5029886;28;20111;-81
2021/11/02 15:58:12;;;;;;;0.20;0.20;;;;;;;8.41;100.00;99380.66;5029723;28;20057;-81
2021/11/02 16:00:46;;;;;;;0.22;0.22;;;;;;;8.40;100.00;99390.72;5030091;28;20045;-80
2021/11/02 16:03:21;;;;;;;0.20;0.20;;;;;;;8.39;100.00;99396.44;5032186;28;20045;-81
2021/11/02 16:05:54;;;;;;;0.20;0.20;;;;;;;8.36;100.00;99397.03;5022196;28;20049;-80
2021/11/02 16:08:27;;;;;;;0.28;0.28;;;;;;;8.31;100.00;99398.72;5046745;28;20048;-80
2021/11/02 16:11:05;;;;;;;0.20;0.20;;;;;;;8.35;100.00;99398.91;5042869;28;20048;-80
2021/11/02 16:13:39;;;;;;;0.25;0.25;;;;;;;8.26;100.00;99408.81;5064593;28;20052;-80
2021/11/02 16:16:12;;;;;;;0.28;0.28;;;;;;;8.21;100.00;99409.72;5039842;28;21117;-81
2021/11/02 16:18:42;;;;;;;0.20;0.20;;;;;;;8.18;100.00;99413.03;5047275;28;20052;-80
2021/11/02 16:21:15;;;;;;;0.20;0.20;;;;;;;8.16;100.00;99409.78;5068675;28;20401;-81
2021/11/02 16:23:51;;;;;;;0.17;0.17;;;;;;;8.07;100.00;99406.94;5040083;28;20049;-81
2021/11/02 16:26:22;;;;;;;0.30;0.30;;;;;;;8.06;100.00;99416.16;5044531;28;20049;-81
2021/11/02 16:28:58;;;;;;;0.20;0.20;;;;;;;8.06;100.00;99408.03;5043574;28;20056;-81
2021/11/02 16:31:32;;;;;;;0.20;0.20;;;;;;;7.97;100.00;99410.63;5043716;28;20041;-81
2021/11/02 16:34:21;;;;;;;0.20;0.20;;;;;;;8.00;100.00;99414.66;5042980;28;20068;-82
2021/11/02 16:36:50;;;;;;;0.25;0.20;;;;;;;7.97;100.00;99415.25;5040077;28;20044;-80
2021/11/02 16:39:23;;;;;;;0.20;0.20;;;;;;;7.77;100.00;99391.94;5043217;28;20417;-80
2021/11/02 16:41:54;;;;;;;0.20;0.20;;;;;;;7.56;100.00;99369.78;5030592;28;20084;-79